Time;durP1;ratioP1;P1;durP2;ratioP2;P2;SDS_P1;SDS_P2;PMS_P1;PMS_P2;Temp;Humidity;BMP_temperature;BMP_pressure;BME280_temperature;BME280_humidity;BME280_pressure;Samples;Min_cycle;Max_cycle;Signal;HPM_P1;HPM_P2
2021/03/15 00:02:15;;;;;;;16.70;5.22;;;;;;;2.92;81.88;99814.85;4922528;58;1134799;-75
2021/03/15 00:07:21;;;;;;;21.63;8.03;;;;;;;2.87;82.17;99806.00;4913555;58;1134216;-75
2021/03/15 00:12:27;;;;;;;24.93;9.67;;;;;;;2.84;81.94;99795.72;4919457;58;1134406;-77
2021/03/15 00:17:32;;;;;;;10.70;4.93;;;;;;;2.90;81.85;99796.69;4924775;58;1134408;-75
2021/03/15 00:22:38;;;;;;;11.30;5.50;;;;;;;2.92;82.24;99795.27;4906268;58;1134418;-77
2021/03/15 00:27:45;;;;;;;10.13;4.77;;;;;;;2.89;81.89;99800.22;4924474;58;1134380;-76
2021/03/15 00:32:52;;;;;;;9.17;4.87;;;;;;;2.87;81.84;99806.00;4905081;58;1134356;-74
2021/03/15 00:37:58;;;;;;;12.10;4.42;;;;;;;2.85;81.87;99803.94;4912233;58;1132334;-76
2021/03/15 00:43:03;;;;;;;19.77;7.43;;;;;;;2.83;81.84;99801.87;4904352;58;1144539;-77
2021/03/15 00:48:09;;;;;;;37.20;17.80;;;;;;;2.81;81.96;99797.19;4899422;58;1134815;-76
2021/03/15 00:53:15;;;;;;;20.15;9.30;;;;;;;2.87;82.09;99791.63;4884410;58;1136909;-75
2021/03/15 00:58:20;;;;;;;9.33;4.80;;;;;;;2.92;81.92;99787.42;4899972;58;1135037;-77
2021/03/15 01:03:26;;;;;;;14.63;5.57;;;;;;;2.89;81.91;99787.16;4916188;58;1132736;-77
2021/03/15 01:08:34;;;;;;;13.83;5.93;;;;;;;2.84;81.50;99785.27;4901186;58;1135052;-77
2021/03/15 01:13:41;;;;;;;17.53;7.40;;;;;;;2.84;81.48;99782.66;4919478;58;1135090;-78
2021/03/15 01:18:47;;;;;;;19.53;7.10;;;;;;;2.90;81.76;99773.64;4908507;58;1135049;-75
2021/03/15 01:23:54;;;;;;;27.10;13.40;;;;;;;2.91;81.53;99776.60;4924340;58;1134989;-75
2021/03/15 01:29:00;;;;;;;37.63;14.67;;;;;;;2.83;81.46;99767.45;4905779;58;1136962;-76
2021/03/15 01:34:06;;;;;;;30.08;11.60;;;;;;;2.78;81.29;99766.88;4897724;58;1136512;-77
2021/03/15 01:39:12;;;;;;;13.60;4.25;;;;;;;2.74;80.91;99756.72;4893987;58;1136926;-76
2021/03/15 01:44:17;;;;;;;12.83;7.03;;;;;;;2.72;80.86;99756.80;4915607;58;1134974;-75
2021/03/15 01:49:23;;;;;;;11.63;6.27;;;;;;;2.63;80.83;99748.63;4913461;58;1134994;-78
2021/03/15 01:54:29;;;;;;;12.07;4.47;;;;;;;2.56;80.99;99745.55;4908855;58;1134838;-76
2021/03/15 01:59:35;;;;;;;11.20;5.43;;;;;;;2.43;80.89;99744.11;4915684;58;1134966;-76
2021/03/15 02:04:41;;;;;;;8.70;4.13;;;;;;;2.35;80.96;99744.14;4910584;58;1135049;-75
2021/03/15 02:09:46;;;;;;;13.37;4.47;;;;;;;2.33;81.09;99735.09;4905411;58;1132690;-77
2021/03/15 02:15:11;;;;;;;8.90;3.83;;;;;;;2.33;81.29;99729.88;4918062;58;1135010;-76
2021/03/15 02:20:45;;;;;;;8.98;4.55;;;;;;;2.32;81.53;99724.28;4912271;58;1132761;-76
2021/03/15 02:26:16;;;;;;;;;;;;;;;2.24;81.37;99723.88;4920960;58;1132693;-77
2021/03/15 02:32:05;;;;;;;5.53;4.50;;;;;;;2.15;81.27;99722.23;4923853;58;969912;-76
2021/03/15 02:37:15;;;;;;;8.05;3.72;;;;;;;2.05;81.39;99718.84;4918144;58;1130275;-76
2021/03/15 02:42:21;;;;;;;7.40;3.53;;;;;;;2.03;81.73;99725.06;4922240;58;1132435;-76
2021/03/15 02:47:30;;;;;;;6.70;3.27;;;;;;;1.99;82.04;99735.28;4912968;58;1132339;-78
2021/03/15 02:52:39;;;;;;;9.45;4.22;;;;;;;1.97;82.08;99731.94;4896247;58;1132341;-75
2021/03/15 02:57:48;;;;;;;7.50;3.67;;;;;;;1.94;82.04;99730.80;4908303;58;1132292;-77
2021/03/15 03:02:55;;;;;;;5.53;3.20;;;;;;;1.90;82.51;99731.88;4911264;58;1132673;-77
2021/03/15 03:08:02;;;;;;;8.23;3.93;;;;;;;1.85;82.48;99731.28;4901587;58;1132498;-78
2021/03/15 03:13:08;;;;;;;6.83;3.50;;;;;;;1.79;82.77;99734.23;4920591;58;1132863;-76
2021/03/15 03:18:16;;;;;;;8.35;3.47;;;;;;;1.73;82.91;99740.16;4915254;58;1133059;-77
2021/03/15 03:23:25;;;;;;;16.93;5.77;;;;;;;1.70;83.26;99739.47;4904941;58;1132793;-76
2021/03/15 03:28:32;;;;;;;7.33;3.63;;;;;;;1.67;83.29;99745.72;4913720;58;1135128;-75
2021/03/15 03:33:38;;;;;;;5.80;3.47;;;;;;;1.66;83.57;99745.80;4909095;58;1132968;-77
2021/03/15 03:38:46;;;;;;;8.63;4.60;;;;;;;1.61;83.68;99752.55;4924797;58;1132704;-77
2021/03/15 03:43:51;;;;;;;7.63;4.27;;;;;;;1.65;83.67;99746.72;4911719;58;1133001;-76
2021/03/15 03:48:57;;;;;;;9.07;4.23;;;;;;;1.59;83.92;99742.66;4883403;58;1133245;-76
2021/03/15 03:54:18;;;;;;;10.32;4.83;;;;;;;1.60;84.13;99746.11;4931020;58;1132827;-77
2021/03/15 03:59:27;;;;;;;11.43;5.47;;;;;;;1.58;84.00;99748.80;4921436;58;1134961;-76
2021/03/15 04:04:38;;;;;;;10.33;3.93;;;;;;;1.55;84.44;99755.46;4912066;58;1135043;-76
2021/03/15 04:09:45;;;;;;;6.47;3.70;;;;;;;1.55;84.54;99753.31;4898783;58;1134855;-77
2021/03/15 04:14:56;;;;;;;6.70;4.10;;;;;;;1.61;84.70;99759.06;4919687;58;1132743;-76
2021/03/15 04:20:12;;;;;;;5.70;4.50;;;;;;;1.65;84.79;99764.96;4915093;58;1132846;-75
2021/03/15 04:25:20;;;;;;;6.55;3.15;;;;;;;1.67;85.19;99764.42;4915338;58;1132723;-75
2021/03/15 04:30:27;;;;;;;7.10;3.80;;;;;;;1.66;86.15;99763.58;4913760;58;1132723;-75
2021/03/15 04:35:35;;;;;;;7.10;4.30;;;;;;;1.65;85.94;99770.17;4914309;58;1132727;-77
2021/03/15 04:40:45;;;;;;;8.37;3.80;;;;;;;1.70;85.82;99766.84;4903450;58;1132728;-77
2021/03/15 04:45:51;;;;;;;6.57;3.30;;;;;;;1.75;86.07;99764.37;4914163;58;1132762;-78
2021/03/15 04:51:01;;;;;;;8.77;3.70;;;;;;;1.78;87.85;99764.68;4900847;58;1132955;-76
2021/03/15 04:56:11;;;;;;;3.60;2.83;;;;;;;1.80;86.60;99770.66;4915166;58;1132648;-78
2021/03/15 05:01:19;;;;;;;11.18;3.87;;;;;;;1.86;86.84;99782.50;4924665;58;1133279;-79
2021/03/15 05:06:26;;;;;;;6.70;4.73;;;;;;;1.90;86.99;99784.03;4918367;58;1135021;-78
2021/03/15 05:11:33;;;;;;;9.70;5.07;;;;;;;1.92;86.60;99792.16;4916100;58;1132649;-76
2021/03/15 05:16:42;;;;;;;12.63;6.43;;;;;;;1.96;86.65;99794.14;4878845;58;1132733;-77
2021/03/15 05:21:50;;;;;;;10.07;6.13;;;;;;;1.95;86.76;99789.39;4912980;58;1134790;-77
2021/03/15 05:26:57;;;;;;;9.40;5.50;;;;;;;1.98;86.81;99793.61;4916643;58;1135128;-77
2021/03/15 05:32:03;;;;;;;8.30;5.87;;;;;;;2.02;86.94;99785.97;4915531;58;1132787;-79
2021/03/15 05:37:11;;;;;;;6.58;4.75;;;;;;;2.05;86.86;99794.48;4903723;58;1132917;-76
2021/03/15 05:42:42;;;;;;;13.55;5.30;;;;;;;2.11;86.99;99797.23;4905944;58;1132835;-78
2021/03/15 05:48:42;;;;;;;12.33;6.57;;;;;;;2.11;88.19;99797.23;4904037;58;1134361;-78
2021/03/15 05:54:28;;;;;;;9.63;6.27;;;;;;;2.15;87.08;99800.02;4916859;58;1134273;-77
2021/03/15 05:59:54;;;;;;;14.77;7.57;;;;;;;2.15;87.21;99792.66;4918741;58;1132952;-78
2021/03/15 06:05:33;;;;;;;13.73;7.13;;;;;;;2.22;87.34;99792.26;4916158;58;1135060;-78
2021/03/15 06:10:44;;;;;;;17.60;8.80;;;;;;;2.27;87.40;99795.92;4911747;58;1134833;-76
2021/03/15 06:15:56;;;;;;;15.93;9.30;;;;;;;2.31;87.14;99802.17;4916637;58;1134849;-79
2021/03/15 06:21:04;;;;;;;14.93;8.27;;;;;;;2.36;86.95;99796.25;4909966;58;1134841;-77
2021/03/15 06:26:12;;;;;;;28.60;17.30;;;;;;;2.42;87.04;99792.01;4941878;58;1134888;-79
2021/03/15 06:31:19;;;;;;;18.63;10.47;;;;;;;2.41;87.16;99794.70;4946824;58;1136915;-77
2021/03/15 06:36:27;;;;;;;19.53;12.83;;;;;;;2.43;87.12;99800.22;4919431;59;1137082;-76
2021/03/15 06:41:34;;;;;;;17.57;10.03;;;;;;;2.46;87.16;99799.17;4916502;59;1136878;-78
2021/03/15 06:46:42;;;;;;;27.27;13.10;;;;;;;2.48;87.39;99798.63;4902834;59;1137058;-78
2021/03/15 06:52:09;;;;;;;91.10;27.43;;;;;;;2.55;87.29;99805.20;4918662;59;1137071;-78
2021/03/15 06:57:20;;;;;;;27.60;12.23;;;;;;;2.59;87.26;99805.42;4918211;59;1141572;-78
2021/03/15 07:02:29;;;;;;;49.43;18.53;;;;;;;2.66;87.38;99809.81;4919175;59;1136605;-77
2021/03/15 07:07:35;;;;;;;29.67;14.30;;;;;;;2.72;87.23;99806.87;4906252;59;1136825;-77
2021/03/15 07:12:41;;;;;;;32.30;16.47;;;;;;;2.77;87.10;99809.58;4893098;59;1136574;-80
2021/03/15 07:17:47;;;;;;;28.53;15.03;;;;;;;2.75;87.25;99804.90;4904601;59;1136642;-77
2021/03/15 07:22:52;;;;;;;23.50;12.37;;;;;;;2.81;87.12;99795.42;4911448;59;1136390;-76
2021/03/15 07:27:58;;;;;;;28.83;13.23;;;;;;;2.89;87.13;99797.61;4914097;59;1136534;-79
2021/03/15 07:33:08;;;;;;;19.57;11.50;;;;;;;2.93;86.99;99808.70;4942086;58;1136512;-79
2021/03/15 07:38:14;;;;;;;28.17;12.43;;;;;;;2.99;87.04;99817.03;4976951;57;1136572;-76
2021/03/15 07:43:28;;;;;;;21.90;11.33;;;;;;;3.01;86.99;99820.41;5037693;57;1136423;-78
2021/03/15 07:48:34;;;;;;;31.90;14.03;;;;;;;3.04;87.13;99826.77;4941893;57;1136452;-78
2021/03/15 07:53:52;;;;;;;23.73;13.70;;;;;;;3.06;87.06;99826.65;5029058;57;1137320;-79
2021/03/15 07:58:54;;;;;;;18.17;10.00;;;;;;;3.06;87.29;99837.09;4900218;58;1137141;-76
2021/03/15 08:03:59;;;;;;;26.30;14.90;;;;;;;3.06;87.58;99839.25;4921593;59;1136363;-78
2021/03/15 08:09:06;;;;;;;27.10;13.53;;;;;;;3.06;87.35;99844.47;4905600;59;1136648;-80
2021/03/15 08:14:12;;;;;;;15.00;7.33;;;;;;;3.10;87.33;99840.77;4880556;59;1136814;-77
2021/03/15 08:19:20;;;;;;;15.85;9.30;;;;;;;3.12;87.84;99843.29;4899727;59;1134589;-79
2021/03/15 08:24:26;;;;;;;22.50;12.03;;;;;;;3.16;87.42;99844.34;4903358;59;1134487;-78
2021/03/15 08:29:38;;;;;;;28.97;13.50;;;;;;;3.29;87.82;99835.31;5044274;57;1136677;-80
2021/03/15 08:34:44;;;;;;;51.73;22.57;;;;;;;3.43;87.75;99831.89;5067819;56;1136944;-78
2021/03/15 08:39:49;;;;;;;26.63;11.40;;;;;;;3.54;87.40;99837.31;5057601;56;1137194;-78
2021/03/15 08:44:57;;;;;;;22.23;12.77;;;;;;;3.65;87.72;99836.23;4923635;58;1137301;-78
2021/03/15 08:50:22;;;;;;;36.33;13.07;;;;;;;3.91;88.03;99825.95;4930003;57;1137436;-77
2021/03/15 08:55:50;;;;;;;27.13;11.30;;;;;;;4.09;87.89;99823.52;4811767;59;1136520;-80
2021/03/15 09:00:58;;;;;;;33.13;12.33;;;;;;;4.15;86.92;99825.73;4769588;60;1136998;-75
2021/03/15 09:06:04;;;;;;;30.53;12.97;;;;;;;4.17;86.87;99831.25;4808518;59;1136621;-76
2021/03/15 09:11:14;;;;;;;19.37;12.37;;;;;;;4.11;86.25;99836.88;4809800;59;1137019;-76
2021/03/15 09:16:25;;;;;;;10.45;5.95;;;;;;;4.01;86.15;99840.14;4806799;59;1137151;-74
2021/03/15 09:21:37;;;;;;;3.97;2.63;;;;;;;3.95;86.13;99833.99;4811889;58;1134922;-75
2021/03/15 09:26:46;;;;;;;2.77;2.58;;;;;;;3.64;85.18;99835.85;4819578;58;1132577;-73
2021/03/15 09:32:11;;;;;;;15.13;5.77;;;;;;;3.49;86.67;99840.22;4922604;57;1132713;-74
2021/03/15 09:37:16;;;;;;;11.43;6.78;;;;;;;3.77;88.78;99832.86;4943950;58;1134709;-73
2021/03/15 09:42:22;;;;;;;6.65;4.70;;;;;;;4.18;87.41;99826.86;4989254;57;1135094;-73
2021/03/15 09:47:28;;;;;;;12.10;8.73;;;;;;;4.43;86.53;99826.17;5020751;57;1133181;-73
2021/03/15 09:52:34;;;;;;;21.70;12.13;;;;;;;4.66;85.13;99829.94;5040475;57;1136367;-73
2021/03/15 09:57:41;;;;;;;19.13;9.10;;;;;;;4.58;84.31;99818.16;4988957;57;1138592;-73
2021/03/15 10:02:51;;;;;;;16.13;8.17;;;;;;;4.56;84.65;99821.84;4992359;57;1134559;-73
2021/03/15 10:08:15;;;;;;;15.23;7.37;;;;;;;4.83;85.79;99817.90;4986986;57;1136838;-73
2021/03/15 10:13:22;;;;;;;20.43;6.12;;;;;;;4.87;83.17;99820.70;4912832;58;1134847;-73
2021/03/15 10:18:38;;;;;;;17.27;8.20;;;;;;;4.75;82.64;99824.09;4984919;57;1134432;-74
2021/03/15 10:23:46;;;;;;;38.23;12.30;;;;;;;4.76;83.67;99817.44;4954259;57;1136419;-74
2021/03/15 10:28:53;;;;;;;11.47;5.80;;;;;;;4.82;82.79;99813.13;5029935;56;1136585;-74
2021/03/15 10:34:04;;;;;;;7.87;4.87;;;;;;;4.83;82.18;99808.26;5055396;56;1134525;-74
2021/03/15 10:39:12;;;;;;;10.60;6.37;;;;;;;5.01;82.16;99802.75;5001744;57;1134635;-79
2021/03/15 10:44:23;;;;;;;8.28;5.75;;;;;;;5.35;82.65;99800.05;5021822;57;1134655;-82
2021/03/15 10:49:33;;;;;;;22.58;6.75;;;;;;;5.56;80.85;99807.27;4999922;57;1134805;-79
2021/03/15 10:54:58;;;;;;;24.47;6.00;;;;;;;5.42;79.13;99819.64;5046902;57;1134543;-81
2021/03/15 11:00:08;;;;;;;13.55;4.40;;;;;;;4.95;77.35;99819.71;5029763;57;1134396;-81
2021/03/15 11:05:16;;;;;;;27.60;8.40;;;;;;;4.56;78.16;99796.48;5022177;57;1135018;-81
2021/03/15 11:10:35;;;;;;;13.32;7.10;;;;;;;4.33;79.34;99793.64;4957950;57;1135047;-77
2021/03/15 11:15:42;;;;;;;12.07;5.37;;;;;;;4.31;79.55;99790.28;5023021;57;1134899;-81
2021/03/15 11:21:01;;;;;;;10.13;4.10;;;;;;;4.30;80.47;99787.28;4994236;57;1135325;-83
2021/03/15 11:26:17;;;;;;;12.03;5.60;;;;;;;4.36;81.03;99777.75;5009308;57;1135494;-77
2021/03/15 11:31:29;;;;;;;4.85;2.80;;;;;;;4.47;81.17;99766.95;4978998;57;1135340;-74
2021/03/15 11:36:37;;;;;;;21.93;7.70;;;;;;;4.60;78.68;99770.45;5064850;56;1133337;-74
2021/03/15 11:41:48;;;;;;;4.80;2.30;;;;;;;4.64;78.42;99760.62;4968125;57;1135193;-74
2021/03/15 11:46:55;;;;;;;3.33;2.00;;;;;;;4.78;79.87;99746.62;5061939;57;1132651;-74
2021/03/15 11:52:02;;;;;;;13.13;4.83;;;;;;;5.22;79.94;99741.86;4980916;57;1132661;-74
2021/03/15 11:57:24;;;;;;;27.05;7.65;;;;;;;5.59;80.22;99737.56;5056824;57;1134828;-75
2021/03/15 12:02:31;;;;;;;17.63;5.20;;;;;;;5.99;80.37;99730.84;4972729;57;1134901;-74
2021/03/15 12:07:42;;;;;;;19.13;5.20;;;;;;;6.25;78.45;99721.95;5070790;56;1134669;-73
2021/03/15 12:12:49;;;;;;;47.93;21.73;;;;;;;6.43;79.05;99721.54;4976600;58;1136733;-74
2021/03/15 12:17:55;;;;;;;24.83;7.33;;;;;;;6.64;79.30;99713.41;5057085;56;1136673;-74
2021/03/15 12:23:01;;;;;;;23.90;8.07;;;;;;;6.72;77.77;99716.79;4972193;58;1134570;-74
2021/03/15 12:28:10;;;;;;;15.80;5.50;;;;;;;6.70;77.07;99705.92;5060322;56;1136741;-74
2021/03/15 12:33:16;;;;;;;8.73;4.43;;;;;;;6.57;74.76;99701.69;5058165;57;1135186;-73
2021/03/15 12:38:22;;;;;;;18.00;5.37;;;;;;;6.45;73.91;99704.72;4979387;57;1132211;-73
2021/03/15 12:43:28;;;;;;;26.10;7.53;;;;;;;6.40;72.39;99701.62;4975408;57;1134774;-75
2021/03/15 12:48:44;;;;;;;19.67;6.43;;;;;;;6.38;73.49;99699.57;4999268;57;1134744;-74
2021/03/15 12:53:49;;;;;;;8.47;3.97;;;;;;;6.48;72.43;99702.34;5003441;57;1134379;-75
2021/03/15 12:59:00;;;;;;;20.63;7.83;;;;;;;6.47;72.11;99698.05;4998163;57;1132594;-75
2021/03/15 13:04:08;;;;;;;15.77;4.93;;;;;;;6.45;72.25;99702.57;4999166;57;1134996;-74
2021/03/15 13:09:16;;;;;;;17.07;4.87;;;;;;;6.50;69.11;99703.92;4997721;57;1144105;-74
2021/03/15 13:14:35;;;;;;;11.07;3.87;;;;;;;6.59;70.87;99703.70;4973549;57;1134568;-74
2021/03/15 13:19:57;;;;;;;8.23;3.10;;;;;;;6.76;68.86;99707.23;4674736;61;1134449;-73
2021/03/15 13:25:05;;;;;;;20.37;7.33;;;;;;;6.76;65.94;99716.91;4673370;62;1133015;-73
2021/03/15 13:30:14;;;;;;;13.90;3.23;;;;;;;6.72;66.51;99720.73;4663899;62;1134771;-74
2021/03/15 13:35:20;;;;;;;13.95;4.80;;;;;;;6.74;67.59;99715.70;4662937;62;1134418;-74
2021/03/15 13:40:27;;;;;;;8.50;3.62;;;;;;;6.76;68.64;99715.59;4676257;62;1134532;-72
2021/03/15 13:45:37;;;;;;;182.40;114.73;;;;;;;6.72;68.50;99720.26;4680330;62;1132879;-72
2021/03/15 13:50:44;;;;;;;117.57;96.47;;;;;;;6.43;69.84;99726.80;4666950;62;1140819;-73
2021/03/15 13:55:52;;;;;;;403.08;315.40;;;;;;;6.28;70.96;99735.31;4916071;57;1138640;-72
2021/03/15 14:00:58;;;;;;;45.13;26.03;;;;;;;6.20;72.20;99728.48;4977665;58;1140961;-73
2021/03/15 14:06:09;;;;;;;12.33;5.47;;;;;;;6.31;73.07;99721.49;4977040;57;1136842;-73
2021/03/15 14:11:15;;;;;;;24.63;11.43;;;;;;;6.50;72.97;99715.73;4999555;57;1142067;-73
2021/03/15 14:16:21;;;;;;;38.80;19.67;;;;;;;6.64;73.09;99716.03;4990141;57;1138607;-72
2021/03/15 14:21:37;;;;;;;29.03;13.37;;;;;;;6.63;73.00;99724.39;5018945;57;1136465;-73
2021/03/15 14:26:45;;;;;;;16.57;7.63;;;;;;;6.64;72.86;99725.23;4991263;57;1136497;-72
2021/03/15 14:31:52;;;;;;;46.00;20.97;;;;;;;6.62;72.69;99725.81;5057677;57;1134386;-72
2021/03/15 14:37:00;;;;;;;37.37;16.87;;;;;;;6.58;72.09;99718.63;5060259;57;1136784;-73
2021/03/15 14:42:06;;;;;;;34.83;13.47;;;;;;;6.56;72.22;99716.61;5067797;56;1136427;-72
2021/03/15 14:47:12;;;;;;;11.73;5.37;;;;;;;6.70;73.11;99718.22;5047768;56;1136598;-73
2021/03/15 14:52:19;;;;;;;7.70;3.70;;;;;;;6.89;72.11;99719.81;4947391;57;1136428;-73
2021/03/15 14:57:25;;;;;;;12.77;5.33;;;;;;;7.14;71.30;99711.40;4961262;58;1134639;-72
2021/03/15 15:02:32;;;;;;;36.40;9.87;;;;;;;7.33;69.71;99695.38;5039224;56;1136938;-73
2021/03/15 15:07:39;;;;;;;7.90;3.80;;;;;;;7.39;70.50;99702.81;5053473;57;1134283;-73
2021/03/15 15:12:49;;;;;;;8.47;4.60;;;;;;;7.47;70.63;99706.66;4995536;57;1132702;-73
2021/03/15 15:17:58;;;;;;;61.60;24.20;;;;;;;7.55;69.40;99701.63;5038087;57;1132264;-73
2021/03/15 15:23:05;;;;;;;85.47;20.83;;;;;;;7.77;67.04;99712.16;5004271;56;1138704;-76
2021/03/15 15:28:11;;;;;;;86.83;28.03;;;;;;;7.75;67.59;99705.69;5007270;57;1136564;-77
2021/03/15 15:33:17;;;;;;;39.17;13.57;;;;;;;7.84;66.64;99714.64;5027202;57;1136508;-76
2021/03/15 15:38:24;;;;;;;38.67;13.57;;;;;;;7.71;65.45;99715.25;4973923;57;1136433;-76
2021/03/15 15:43:30;;;;;;;39.87;15.60;;;;;;;7.49;66.58;99713.92;4996734;57;1136458;-74
2021/03/15 15:48:35;;;;;;;42.77;12.90;;;;;;;7.36;67.85;99715.36;5026268;57;1136440;-74
2021/03/15 15:53:41;;;;;;;30.30;10.03;;;;;;;7.23;67.46;99712.84;5054996;57;1138740;-74
2021/03/15 15:58:51;;;;;;;46.67;17.87;;;;;;;7.14;68.32;99716.18;5019342;57;1136616;-74
2021/03/15 16:03:56;;;;;;;51.43;21.50;;;;;;;7.09;68.62;99715.69;4978101;57;1137216;-74
2021/03/15 16:09:03;;;;;;;32.43;14.80;;;;;;;7.02;69.21;99716.64;4999169;57;1136549;-73
2021/03/15 16:14:08;;;;;;;26.33;12.10;;;;;;;7.02;69.50;99717.13;4991316;57;1136696;-74
2021/03/15 16:19:14;;;;;;;20.70;11.07;;;;;;;7.00;68.80;99725.13;4951070;57;1138508;-73
2021/03/15 16:24:19;;;;;;;66.50;25.40;;;;;;;6.92;68.54;99729.27;5037845;56;1136610;-74
2021/03/15 16:29:25;;;;;;;16.00;7.90;;;;;;;6.84;68.21;99736.89;5039881;56;1136317;-74
2021/03/15 16:34:31;;;;;;;41.87;14.30;;;;;;;6.78;69.24;99750.48;5053937;57;1134969;-74
2021/03/15 16:39:37;;;;;;;15.20;7.53;;;;;;;6.78;69.24;99750.48;5018631;57;1136775;-74
2021/03/15 16:44:43;;;;;;;80.03;25.33;;;;;;;6.83;69.33;99751.83;4977579;57;1137042;-74
2021/03/15 16:49:51;;;;;;;84.70;26.57;;;;;;;6.86;69.63;99749.45;4961358;57;1138625;-73
2021/03/15 16:54:56;;;;;;;130.60;38.10;;;;;;;6.88;69.72;99757.56;5036650;57;1136564;-75
2021/03/15 17:00:04;;;;;;;18.52;10.95;;;;;;;6.84;69.69;99756.61;5038849;57;1138670;-75
2021/03/15 17:05:12;;;;;;;27.48;15.63;;;;;;;6.74;69.47;99759.53;4983607;57;1136665;-78
2021/03/15 17:10:18;;;;;;;17.80;8.55;;;;;;;6.60;69.41;99760.55;4961221;57;1137145;-78
2021/03/15 17:15:24;;;;;;;12.88;7.12;;;;;;;6.43;69.58;99767.50;4957233;57;1134404;-78
2021/03/15 17:20:29;;;;;;;12.70;6.43;;;;;;;6.28;69.74;99772.07;5006128;57;1134324;-79
2021/03/15 17:25:36;;;;;;;44.90;17.27;;;;;;;6.15;70.13;99773.91;5028632;57;1134478;-80
2021/03/15 17:30:41;;;;;;;126.63;34.60;;;;;;;6.04;70.41;99781.23;5017851;57;1136598;-78
2021/03/15 17:35:47;;;;;;;142.40;42.63;;;;;;;6.00;70.81;99785.86;5053212;56;1140557;-78
2021/03/15 17:40:52;;;;;;;40.40;13.67;;;;;;;5.95;71.24;99783.20;5028339;55;1140764;-81
2021/03/15 17:45:58;;;;;;;50.57;19.20;;;;;;;5.89;71.62;99790.19;4973827;56;1137047;-76
2021/03/15 17:51:04;;;;;;;99.07;38.67;;;;;;;5.82;71.86;99798.07;5006312;55;1136286;-76
2021/03/15 17:56:09;;;;;;;84.60;40.03;;;;;;;5.76;72.23;99802.45;4999788;56;1136361;-79
2021/03/15 18:01:16;;;;;;;48.40;18.10;;;;;;;5.69;72.60;99798.09;5029172;55;1136407;-78
2021/03/15 18:06:22;;;;;;;225.63;62.47;;;;;;;5.65;72.66;99811.06;5015162;56;1137009;-77
2021/03/15 18:11:28;;;;;;;231.70;63.47;;;;;;;5.31;72.52;99812.52;5052114;55;1138521;-78
2021/03/15 18:16:33;;;;;;;549.57;222.60;;;;;;;5.16;73.40;99817.47;4993929;55;1138998;-76
2021/03/15 18:21:40;;;;;;;164.57;54.93;;;;;;;5.10;73.65;99816.08;5024272;55;1140848;-79
2021/03/15 18:26:46;;;;;;;131.17;57.57;;;;;;;5.12;74.20;99812.05;4955882;56;1138621;-80
2021/03/15 18:31:51;;;;;;;146.33;57.33;;;;;;;5.22;74.60;99809.17;5002674;55;1138630;-79
2021/03/15 18:36:57;;;;;;;63.90;26.70;;;;;;;5.28;74.57;99812.23;4986829;56;1138907;-77
2021/03/15 18:42:03;;;;;;;43.60;22.90;;;;;;;5.28;74.46;99803.53;5060309;55;1137279;-76
2021/03/15 18:47:09;;;;;;;52.07;24.20;;;;;;;5.28;74.27;99808.31;5031729;56;1136602;-80
2021/03/15 18:52:15;;;;;;;70.33;32.97;;;;;;;5.30;74.22;99812.98;5041286;55;1138602;-75
2021/03/15 18:57:20;;;;;;;61.40;29.87;;;;;;;5.35;74.40;99817.89;5051078;55;1139109;-78
2021/03/15 19:02:26;;;;;;;150.27;64.70;;;;;;;5.38;74.51;99820.78;5045396;56;1136951;-77
2021/03/15 19:07:31;;;;;;;102.40;48.40;;;;;;;5.28;74.03;99817.48;5066330;55;1138884;-76
2021/03/15 19:12:37;;;;;;;132.23;61.57;;;;;;;5.14;73.88;99824.12;5007555;57;1138521;-78
2021/03/15 19:17:43;;;;;;;104.53;43.37;;;;;;;5.03;73.95;99818.75;4972441;57;1138877;-78
2021/03/15 19:22:49;;;;;;;76.25;34.85;;;;;;;4.95;73.92;99824.95;5034373;56;1140950;-79
2021/03/15 19:28:02;;;;;;;109.87;47.27;;;;;;;4.83;74.18;99820.52;5050626;56;1136602;-79
2021/03/15 19:33:02;;;;;;;82.95;38.05;;;;;;;4.75;74.36;99822.31;4995062;57;1138481;-77
2021/03/15 19:38:07;;;;;;;105.83;44.30;;;;;;;4.68;74.49;99821.05;4991964;57;1136545;-76
2021/03/15 19:43:13;;;;;;;107.83;46.60;;;;;;;4.63;74.51;99834.89;4997319;56;1138637;-79
2021/03/15 19:48:18;;;;;;;81.57;33.33;;;;;;;4.55;74.10;99835.86;5060188;56;1138574;-75
2021/03/15 19:53:24;;;;;;;126.73;49.47;;;;;;;4.44;73.78;99848.30;4994569;57;1138834;-79
2021/03/15 19:58:30;;;;;;;244.40;90.27;;;;;;;4.25;73.50;99853.03;5017540;56;1138798;-76
2021/03/15 20:03:35;;;;;;;293.70;102.63;;;;;;;4.01;73.65;99859.30;5010127;56;1138571;-75
2021/03/15 20:08:41;;;;;;;239.03;85.23;;;;;;;3.86;74.09;99857.61;5027578;57;1141047;-76
2021/03/15 20:13:47;;;;;;;154.30;58.30;;;;;;;3.76;74.43;99863.03;4995004;57;1138572;-80
2021/03/15 20:18:53;;;;;;;121.10;42.17;;;;;;;3.71;74.69;99863.77;5036134;57;1138887;-78
2021/03/15 20:23:59;;;;;;;89.97;37.73;;;;;;;3.69;74.42;99863.84;5004367;56;1138474;-77
2021/03/15 20:29:06;;;;;;;96.40;43.33;;;;;;;3.71;74.48;99865.07;5009786;57;1136654;-76
2021/03/15 20:34:12;;;;;;;97.27;40.93;;;;;;;3.64;74.23;99867.23;4964015;57;1136557;-79
2021/03/15 20:39:17;;;;;;;101.40;51.13;;;;;;;3.57;74.32;99871.13;4989653;57;1136636;-75
2021/03/15 20:44:23;;;;;;;116.47;53.07;;;;;;;3.45;74.56;99875.31;4992400;57;1139094;-78
2021/03/15 20:49:29;;;;;;;95.60;42.23;;;;;;;3.40;74.49;99872.11;4975358;58;1139046;-78
2021/03/15 20:54:34;;;;;;;92.53;41.97;;;;;;;3.34;74.06;99875.56;4968474;57;1136823;-76
2021/03/15 20:59:40;;;;;;;106.87;49.53;;;;;;;3.24;74.34;99883.08;4999313;57;1136434;-78
2021/03/15 21:04:45;;;;;;;109.83;45.77;;;;;;;3.18;74.50;99882.98;4990558;57;1138517;-79
2021/03/15 21:09:51;;;;;;;62.73;27.00;;;;;;;3.08;74.70;99880.50;4953391;57;1139040;-77
2021/03/15 21:15:01;;;;;;;99.70;42.77;;;;;;;2.96;74.45;99887.73;4959629;57;1136672;-80
2021/03/15 21:20:12;;;;;;;69.80;34.17;;;;;;;2.91;74.77;99897.58;4957973;57;1137159;-79
2021/03/15 21:25:18;;;;;;;73.27;32.97;;;;;;;2.89;75.09;99897.31;5035406;57;1136482;-80
2021/03/15 21:30:30;;;;;;;66.33;29.63;;;;;;;2.83;75.17;99897.19;4940174;57;1136434;-81
2021/03/15 21:35:39;;;;;;;52.20;25.43;;;;;;;2.79;75.14;99899.11;4996828;57;1136475;-79
2021/03/15 21:40:45;;;;;;;64.90;30.00;;;;;;;2.76;75.06;99898.44;4994727;57;1136524;-81
2021/03/15 21:45:50;;;;;;;73.10;35.33;;;;;;;2.76;75.18;99891.45;4983784;57;1136615;-78
2021/03/15 21:50:56;;;;;;;116.03;47.20;;;;;;;2.75;75.35;99894.98;5032372;57;1136722;-76
2021/03/15 21:56:01;;;;;;;94.13;41.77;;;;;;;2.74;75.28;99900.32;4962193;57;1138827;-77
2021/03/15 22:01:07;;;;;;;93.52;39.40;;;;;;;2.68;75.08;99902.79;5038139;57;1136784;-75
2021/03/15 22:06:13;;;;;;;87.70;40.20;;;;;;;2.54;74.50;99895.34;4977353;57;1136694;-76
2021/03/15 22:11:18;;;;;;;80.27;37.17;;;;;;;2.39;74.58;99894.41;4996030;57;1136994;-79
2021/03/15 22:16:24;;;;;;;72.13;33.30;;;;;;;2.34;75.28;99899.86;4979816;57;1136533;-77
2021/03/15 22:21:30;;;;;;;70.60;31.90;;;;;;;2.40;75.59;99892.17;5002252;57;1136385;-77
2021/03/15 22:26:37;;;;;;;84.53;36.53;;;;;;;2.47;75.34;99891.74;5004020;57;1136495;-77
2021/03/15 22:31:43;;;;;;;87.30;39.30;;;;;;;2.29;74.61;99890.61;4991354;57;1136346;-77
2021/03/15 22:36:48;;;;;;;81.00;34.40;;;;;;;2.25;75.19;99888.63;4984886;57;1137186;-81
2021/03/15 22:41:55;;;;;;;82.18;35.12;;;;;;;2.29;75.34;99891.42;5003578;57;1136998;-78
2021/03/15 22:47:01;;;;;;;74.40;32.58;;;;;;;2.35;75.30;99888.96;4990946;57;1137310;-77
2021/03/15 22:52:10;;;;;;;81.72;39.08;;;;;;;2.37;75.38;99885.35;4983863;57;1136858;-78
2021/03/15 22:57:15;;;;;;;68.77;33.47;;;;;;;2.35;75.31;99895.48;4999518;57;1137056;-78
2021/03/15 23:02:21;;;;;;;70.97;31.30;;;;;;;2.34;74.99;99898.55;4989799;57;1136893;-78
2021/03/15 23:07:26;;;;;;;68.67;32.47;;;;;;;2.29;74.67;99895.34;5003155;57;1137143;-78
2021/03/15 23:12:32;;;;;;;72.13;33.57;;;;;;;2.11;74.33;99893.73;5036587;57;1137093;-79
2021/03/15 23:17:37;;;;;;;74.10;35.80;;;;;;;1.96;74.39;99895.84;5031944;57;1137074;-78
2021/03/15 23:22:53;;;;;;;87.67;41.10;;;;;;;1.96;74.80;99902.36;5036925;57;1136828;-78
2021/03/15 23:27:59;;;;;;;86.87;42.07;;;;;;;1.94;74.89;99905.51;5037267;57;1136702;-77
2021/03/15 23:33:05;;;;;;;81.87;41.50;;;;;;;1.83;74.75;99900.86;5036593;57;1136702;-77